Forside
METAR-TAF:

METAR-TAF

Lufthavne :

Chicago, Illinois, USA

Breddekreds: 41-47-03N, længdekreds: 087-45-19W, højde: 188 m

Aktuelle vejr

Denne rapport blev lavet for 46 minutter siden, kl. 11:53 UTC
Vind 3 kt fra nordnordvest
Temperatur 19°C
Fugtighed 83%
Tryk 1020 hPa
Sigt: 16.1 km
Nogle få skyer i en højde af 25000 ft

METAR: KMDW 121153Z 34003KT 10SM FEW250 19/16 A3012 RMK AO2 SLP192 T01890156 10211 20172 53014

Tid: 07:39 (12:39 UTC)

Vejrudsigter

Denne rapport blev lavet for 1 time og 19 minutter siden, kl. 11:20 UTC
Foreløbig gælder fra 12 på 12 UTC til 13 på 18 UTC
Vind 3 kt fra nordnordøst
Sigt: 10 km
Nogle få skyer i en højde af 30000 ft
Fra 12 på 1400 UTC
Vind 8 kt fra øst
Sigt: 10 km
Nogle få skyer i en højde af 30000 ft

TAF: KMDW 121120Z 1212/1318 03003KT P6SM FEW300 FM121400 08008KT P6SM FEW300

Vejrobservationer og prognoser fra mere end 4000 lufthavne (METAR og TAF).

De gule og røde prikker repræsenterer de meteorologiske stationer.

Flyt musen over at se navnet på stationen.

Så klik over at se vejr observationer og prognoser.

At skifte det kort: Klik på de grønne knapper med et sort kors for at zoome ind; på den grønne knap med en bindestreg for at zoome ud; eller på de grønne pile for tilstødende kort.


METAR-TAF: